Time;durP1;ratioP1;P1;durP2;ratioP2;P2;SDS_P1;SDS_P2;PMS_P1;PMS_P2;Temp;Humidity;BMP_temperature;BMP_pressure;BME280_temperature;BME280_humidity;BME280_pressure;Samples;Min_cycle;Max_cycle;Signal;HPM_P1;HPM_P2
2022/04/11 00:00:31;;;;;;;18.17;9.37;;;4.80;99.90;;;;;;5019320;23;20157;-75
2022/04/11 00:02:57;;;;;;;23.53;9.27;;;4.60;99.90;;;;;;4993040;28;20100;-75
2022/04/11 00:05:23;;;;;;;15.80;9.00;;;4.50;99.90;;;;;;4993558;28;20101;-75
2022/04/11 00:07:49;;;;;;;23.73;10.87;;;4.40;99.90;;;;;;4993508;28;20034;-76
2022/04/11 00:10:15;;;;;;;22.37;10.17;;;4.40;99.90;;;;;;4993013;28;20030;-75
2022/04/11 00:12:41;;;;;;;21.93;10.23;;;4.40;99.90;;;;;;4992257;28;20022;-75
2022/04/11 00:15:08;;;;;;;20.00;9.83;;;4.30;99.90;;;;;;4992205;28;20590;-75
2022/04/11 00:17:34;;;;;;;20.40;10.50;;;4.30;99.90;;;;;;4992751;28;20026;-75
2022/04/11 00:20:00;;;;;;;19.03;10.60;;;4.20;99.90;;;;;;4992453;28;20031;-75
2022/04/11 00:22:25;;;;;;;26.37;11.67;;;4.20;99.90;;;;;;4991853;28;20096;-75
2022/04/11 00:24:52;;;;;;;22.63;11.57;;;4.20;99.90;;;;;;4992806;28;20386;-75
2022/04/11 00:27:18;;;;;;;22.90;10.47;;;4.20;99.90;;;;;;4975057;28;20022;-75
2022/04/11 00:29:44;;;;;;;24.77;10.53;;;4.20;99.90;;;;;;4991959;28;20037;-75
2022/04/11 00:32:09;;;;;;;20.73;10.63;;;4.20;99.90;;;;;;4989020;28;20038;-75
2022/04/11 00:34:35;;;;;;;22.70;9.77;;;4.10;99.90;;;;;;4974580;28;20033;-75
2022/04/11 00:37:01;;;;;;;17.87;9.70;;;4.00;99.90;;;;;;4990572;28;20025;-75
2022/04/11 00:39:26;;;;;;;18.20;9.17;;;4.00;99.90;;;;;;4991827;28;20045;-75
2022/04/11 00:41:52;;;;;;;21.77;9.23;;;3.90;99.90;;;;;;4992997;28;20026;-75
2022/04/11 00:44:18;;;;;;;13.73;8.43;;;3.90;99.90;;;;;;4995218;28;20026;-75
2022/04/11 00:46:43;;;;;;;20.47;9.87;;;3.80;99.90;;;;;;4974981;28;20387;-75
2022/04/11 00:49:09;;;;;;;15.60;7.90;;;3.80;99.90;;;;;;4992264;28;20027;-75
2022/04/11 00:51:35;;;;;;;16.93;9.13;;;3.70;99.90;;;;;;4992224;28;20084;-75
2022/04/11 00:54:02;;;;;;;20.90;9.23;;;3.70;99.90;;;;;;4991816;28;20029;-75
2022/04/11 00:56:29;;;;;;;18.23;8.93;;;3.60;99.90;;;;;;4992474;28;20038;-75
2022/04/11 00:58:57;;;;;;;18.77;9.43;;;3.70;99.90;;;;;;5022385;23;20486;-76
2022/04/11 01:01:23;;;;;;;14.47;9.47;;;3.60;99.90;;;;;;4992937;28;20069;-77
2022/04/11 01:03:49;;;;;;;17.60;8.80;;;3.50;99.90;;;;;;4991278;28;20108;-77
2022/04/11 01:06:14;;;;;;;18.77;9.07;;;3.40;99.90;;;;;;4991086;28;20034;-76
2022/04/11 01:08:40;;;;;;;19.10;8.97;;;3.40;99.90;;;;;;4991207;28;20092;-76
2022/04/11 01:11:06;;;;;;;17.37;9.87;;;3.40;99.90;;;;;;4991490;28;20494;-77
2022/04/11 01:13:32;;;;;;;17.47;9.60;;;3.30;99.90;;;;;;4994900;28;20033;-77
2022/04/11 01:15:59;;;;;;;15.03;9.33;;;3.20;99.90;;;;;;4990999;28;20034;-77
2022/04/11 01:18:25;;;;;;;16.97;9.50;;;3.10;99.90;;;;;;4991327;28;20023;-77
2022/04/11 01:20:51;;;;;;;18.13;9.87;;;3.00;99.90;;;;;;4991178;28;20042;-77
2022/04/11 01:23:17;;;;;;;15.00;9.07;;;3.10;99.90;;;;;;4991227;28;20422;-77
2022/04/11 01:25:51;;;;;;;20.07;9.93;;;3.00;99.90;;;;;;4991174;28;20081;-76
2022/04/11 01:28:18;;;;;;;18.43;8.87;;;3.00;99.90;;;;;;4991045;28;20312;-76
2022/04/11 01:30:44;;;;;;;16.83;8.93;;;3.00;99.90;;;;;;4990884;28;20026;-77
2022/04/11 01:33:21;;;;;;;17.03;9.10;;;3.00;99.90;;;;;;4993179;28;20029;-76
2022/04/11 01:35:47;;;;;;;15.70;9.23;;;3.00;99.90;;;;;;4985497;28;20019;-77
2022/04/11 01:38:13;;;;;;;17.07;9.47;;;3.00;99.90;;;;;;4990666;28;20449;-77
2022/04/11 01:41:09;;;;;;;19.83;10.17;;;2.90;99.90;;;;;;4990780;28;20759;-77
2022/04/11 01:43:34;;;;;;;16.87;8.47;;;2.90;99.90;;;;;;4980832;28;20023;-76
2022/04/11 01:46:00;;;;;;;15.60;8.83;;;2.80;99.90;;;;;;4994795;28;20102;-76
2022/04/11 01:48:26;;;;;;;15.50;8.70;;;2.80;99.90;;;;;;4995006;28;20066;-77
2022/04/11 01:50:51;;;;;;;15.43;9.03;;;2.80;99.90;;;;;;4994243;28;20014;-77
2022/04/11 01:53:19;;;;;;;14.03;9.07;;;2.90;99.90;;;;;;4994425;28;20026;-76
2022/04/11 01:55:46;;;;;;;15.07;8.17;;;2.80;99.90;;;;;;4999187;28;20045;-77
2022/04/11 01:58:12;;;;;;;19.20;8.57;;;2.80;99.90;;;;;;4995359;28;20050;-76
2022/04/11 02:00:39;;;;;;;17.10;10.03;;;2.80;99.90;;;;;;5008832;22;20533;-74
2022/04/11 02:03:06;;;;;;;17.50;8.30;;;2.70;99.90;;;;;;4976105;28;20023;-74
2022/04/11 02:05:32;;;;;;;12.13;7.37;;;2.60;99.90;;;;;;4958571;28;20026;-74
2022/04/11 02:07:59;;;;;;;14.27;7.70;;;2.70;99.90;;;;;;4976155;28;20030;-74
2022/04/11 02:10:25;;;;;;;16.03;8.43;;;2.80;99.90;;;;;;4975762;28;20022;-74
2022/04/11 02:12:51;;;;;;;14.90;8.63;;;2.80;99.90;;;;;;4976672;28;20038;-74
2022/04/11 02:15:18;;;;;;;13.87;7.80;;;2.80;99.90;;;;;;4978054;28;20443;-74
2022/04/11 02:17:46;;;;;;;13.67;8.13;;;2.80;99.90;;;;;;4975673;28;20050;-74
2022/04/11 02:20:13;;;;;;;20.67;9.37;;;3.10;99.90;;;;;;4975327;28;20054;-74
2022/04/11 02:22:50;;;;;;;13.30;8.77;;;3.10;99.90;;;;;;4975900;28;20167;-74
2022/04/11 02:25:17;;;;;;;17.13;9.57;;;3.00;99.90;;;;;;4975547;28;20038;-74
2022/04/11 02:27:44;;;;;;;19.90;9.03;;;3.00;99.90;;;;;;4975488;28;20029;-74
2022/04/11 02:30:11;;;;;;;18.50;8.93;;;2.90;99.90;;;;;;4975834;28;20089;-74
2022/04/11 02:32:37;;;;;;;26.73;11.07;;;2.90;99.90;;;;;;4958219;28;20395;-74
2022/04/11 02:35:04;;;;;;;17.30;9.90;;;3.00;99.90;;;;;;4975761;28;20031;-74
2022/04/11 02:37:30;;;;;;;16.13;8.57;;;2.90;99.90;;;;;;4957988;28;20392;-74
2022/04/11 02:39:56;;;;;;;18.77;8.13;;;2.90;99.90;;;;;;4981049;28;20034;-74
2022/04/11 02:42:25;;;;;;;12.73;8.47;;;2.80;99.90;;;;;;4975246;28;20023;-74
2022/04/11 02:44:51;;;;;;;14.50;8.00;;;2.90;99.90;;;;;;4977753;28;20034;-74
2022/04/11 02:47:18;;;;;;;14.73;7.50;;;2.80;99.90;;;;;;4976258;28;20034;-75
2022/04/11 02:49:44;;;;;;;14.80;8.30;;;2.80;99.90;;;;;;4975574;28;20031;-74
2022/04/11 02:52:10;;;;;;;14.00;8.83;;;2.70;99.90;;;;;;4975016;28;20392;-75
2022/04/11 02:54:36;;;;;;;14.73;8.03;;;2.70;99.90;;;;;;4975419;28;20154;-75
2022/04/11 02:57:03;;;;;;;16.23;8.53;;;2.70;99.90;;;;;;4975114;28;20464;-76
2022/04/11 02:59:28;;;;;;;14.33;8.70;;;2.70;99.90;;;;;;4983769;23;20655;-75
2022/04/11 03:01:55;;;;;;;21.37;8.87;;;2.70;99.90;;;;;;4993643;28;20541;-75
2022/04/11 03:04:21;;;;;;;16.70;8.17;;;2.70;99.90;;;;;;4993335;28;20026;-77
2022/04/11 03:06:47;;;;;;;15.43;8.50;;;2.70;99.90;;;;;;4993614;28;20129;-75
2022/04/11 03:09:12;;;;;;;12.23;7.90;;;2.70;99.90;;;;;;4996390;28;20457;-77
2022/04/11 03:11:38;;;;;;;16.63;8.77;;;2.60;99.90;;;;;;4996500;28;20498;-77
2022/04/11 03:14:04;;;;;;;18.67;8.10;;;2.50;99.90;;;;;;4977894;28;20026;-76
2022/04/11 03:16:31;;;;;;;15.53;9.03;;;2.50;99.90;;;;;;4993579;28;20669;-77
2022/04/11 03:18:57;;;;;;;16.30;9.67;;;2.40;99.90;;;;;;4994125;28;20506;-77
2022/04/11 03:21:22;;;;;;;12.40;8.47;;;2.40;99.90;;;;;;4993667;28;20467;-77
2022/04/11 03:23:48;;;;;;;14.93;8.27;;;2.40;99.90;;;;;;4992591;28;20026;-77
2022/04/11 03:26:14;;;;;;;14.93;8.60;;;2.40;99.90;;;;;;4993805;28;20109;-77
2022/04/11 03:28:40;;;;;;;17.57;9.10;;;2.50;99.90;;;;;;4975964;28;20030;-77
2022/04/11 03:31:05;;;;;;;16.27;8.67;;;2.50;99.90;;;;;;4993451;28;20522;-77
2022/04/11 03:33:31;;;;;;;14.90;8.43;;;2.50;99.90;;;;;;4993714;28;20101;-76
2022/04/11 03:35:57;;;;;;;14.43;8.43;;;2.50;99.90;;;;;;4993574;28;20030;-77
2022/04/11 03:38:23;;;;;;;18.07;8.23;;;2.50;99.90;;;;;;4993318;28;20104;-77
2022/04/11 03:40:48;;;;;;;12.40;8.43;;;2.50;99.90;;;;;;4993197;28;20136;-77
2022/04/11 03:43:14;;;;;;;14.10;7.83;;;2.50;99.90;;;;;;4995788;28;20471;-77
2022/04/11 03:45:40;;;;;;;14.00;7.63;;;2.50;99.90;;;;;;4975451;28;20109;-76
2022/04/11 03:48:06;;;;;;;16.47;7.47;;;2.50;99.90;;;;;;4993261;28;20624;-77
2022/04/11 03:50:31;;;;;;;19.10;8.83;;;2.50;99.90;;;;;;4992880;28;20018;-77
2022/04/11 03:52:57;;;;;;;11.37;7.90;;;2.60;99.90;;;;;;4992882;28;20054;-76
2022/04/11 03:55:23;;;;;;;17.87;8.33;;;2.60;99.90;;;;;;4992848;28;20076;-77
2022/04/11 03:57:50;;;;;;;20.60;10.47;;;2.50;99.90;;;;;;4992540;28;20029;-77
2022/04/11 04:00:16;;;;;;;15.67;8.87;;;2.60;99.90;;;;;;5033257;22;20053;-75
2022/04/11 04:02:43;;;;;;;16.13;8.70;;;2.80;99.90;;;;;;5031730;28;20037;-75
2022/04/11 04:05:09;;;;;;;15.37;8.53;;;2.80;99.90;;;;;;5012885;28;20021;-75
2022/04/11 04:07:38;;;;;;;18.00;9.33;;;2.70;99.90;;;;;;5031834;28;20492;-75
2022/04/11 04:10:05;;;;;;;16.03;8.33;;;2.80;99.90;;;;;;5037068;28;20032;-75
2022/04/11 04:12:31;;;;;;;18.20;9.33;;;2.80;99.90;;;;;;5009942;28;20080;-75
2022/04/11 04:14:57;;;;;;;18.30;10.03;;;2.90;99.90;;;;;;5031850;28;20449;-75
2022/04/11 04:17:23;;;;;;;19.73;9.07;;;2.90;99.90;;;;;;5031880;28;20572;-75
2022/04/11 04:19:49;;;;;;;15.60;9.57;;;3.00;99.90;;;;;;5032117;28;20039;-75
2022/04/11 04:22:15;;;;;;;20.30;9.20;;;3.00;99.90;;;;;;5031885;28;20386;-75
2022/04/11 04:24:41;;;;;;;19.97;10.23;;;2.90;99.90;;;;;;5020955;28;20079;-75
2022/04/11 04:27:07;;;;;;;22.60;10.53;;;3.00;99.90;;;;;;5031569;28;20033;-75
2022/04/11 04:29:34;;;;;;;21.83;9.23;;;3.00;99.90;;;;;;5031485;28;20028;-75
2022/04/11 04:32:00;;;;;;;24.00;9.90;;;3.00;99.90;;;;;;5024808;28;20027;-75
2022/04/11 04:34:26;;;;;;;18.57;9.40;;;3.10;99.90;;;;;;5031948;28;20021;-75
2022/04/11 04:36:53;;;;;;;19.83;9.93;;;3.10;99.90;;;;;;5031568;28;20030;-75
2022/04/11 04:39:19;;;;;;;20.43;9.37;;;3.10;99.90;;;;;;5031265;28;20040;-75
2022/04/11 04:41:44;;;;;;;14.17;9.20;;;3.20;99.90;;;;;;5031746;28;20497;-75
2022/04/11 04:44:10;;;;;;;17.57;9.60;;;3.20;99.90;;;;;;5031425;28;20044;-75
2022/04/11 04:46:36;;;;;;;17.27;9.90;;;3.20;99.90;;;;;;5031779;28;20089;-75
2022/04/11 04:49:02;;;;;;;16.43;10.13;;;3.20;99.90;;;;;;5031565;28;20023;-75
2022/04/11 04:51:28;;;;;;;23.47;10.53;;;3.30;99.90;;;;;;5031611;28;20474;-76
2022/04/11 04:53:55;;;;;;;20.33;9.77;;;3.40;99.90;;;;;;5031444;28;20020;-75
2022/04/11 04:56:21;;;;;;;16.90;9.77;;;3.50;99.90;;;;;;5031385;28;20021;-75
2022/04/11 04:58:46;;;;;;;19.50;9.97;;;3.60;99.90;;;;;;5031182;28;20347;-75
2022/04/11 05:01:15;;;;;;;16.80;8.57;;;3.60;99.90;;;;;;5051687;22;20383;-78
2022/04/11 05:03:41;;;;;;;19.30;9.73;;;3.60;99.90;;;;;;5031395;28;20033;-78
2022/04/11 05:06:08;;;;;;;20.67;10.50;;;3.70;99.90;;;;;;5031513;28;20053;-78
2022/04/11 05:08:33;;;;;;;27.30;10.33;;;3.70;99.90;;;;;;5013050;28;20025;-78
2022/04/11 05:11:00;;;;;;;20.63;9.60;;;3.80;99.90;;;;;;5031324;28;20025;-75
2022/04/11 05:13:26;;;;;;;22.57;9.43;;;3.90;99.90;;;;;;5012788;28;20029;-75
2022/04/11 05:15:51;;;;;;;19.63;9.07;;;4.00;99.90;;;;;;5033403;28;20017;-75
2022/04/11 05:18:17;;;;;;;22.63;9.90;;;4.10;99.90;;;;;;5035643;28;20028;-75
2022/04/11 05:20:43;;;;;;;18.13;9.47;;;4.40;99.90;;;;;;5035230;28;20033;-77
2022/04/11 05:23:09;;;;;;;14.23;8.37;;;4.60;99.90;;;;;;5035471;28;20084;-77
2022/04/11 05:25:35;;;;;;;18.00;8.50;;;4.80;99.90;;;;;;5017429;28;20025;-77
2022/04/11 05:28:01;;;;;;;15.57;7.97;;;5.10;99.90;;;;;;5035108;28;20024;-75
2022/04/11 05:30:27;;;;;;;11.07;7.17;;;5.30;99.90;;;;;;5035056;28;20022;-77
2022/04/11 05:32:53;;;;;;;15.97;7.63;;;5.50;99.90;;;;;;5042109;28;20114;-75
2022/04/11 05:35:19;;;;;;;18.13;7.40;;;5.50;99.90;;;;;;5035334;28;20037;-75
2022/04/11 05:37:44;;;;;;;11.60;5.90;;;5.60;99.90;;;;;;5035088;28;20075;-75
2022/04/11 05:40:12;;;;;;;13.43;6.90;;;5.60;99.90;;;;;;5027945;28;20041;-75
2022/04/11 05:42:38;;;;;;;17.13;7.33;;;5.70;99.90;;;;;;5034426;28;20021;-75
2022/04/11 05:45:07;;;;;;;8.23;5.60;;;5.70;99.90;;;;;;5035004;28;20492;-75
2022/04/11 05:47:32;;;;;;;12.60;6.13;;;5.80;99.90;;;;;;5034756;28;20470;-75
2022/04/11 05:49:58;;;;;;;12.53;6.20;;;5.80;99.90;;;;;;5034688;28;20028;-77
2022/04/11 05:52:24;;;;;;;10.73;5.03;;;5.90;99.90;;;;;;5034783;28;20026;-77
2022/04/11 05:54:50;;;;;;;13.53;6.13;;;6.00;99.70;;;;;;5034198;28;20056;-75
2022/04/11 05:57:15;;;;;;;10.70;5.83;;;6.20;99.10;;;;;;5034993;28;20033;-78
2022/04/11 05:59:42;;;;;;;13.43;5.30;;;6.20;99.30;;;;;;5054295;22;20046;-75
2022/04/11 06:02:10;;;;;;;15.90;6.00;;;6.10;99.30;;;;;;5016512;28;20604;-75
2022/04/11 06:04:39;;;;;;;10.20;5.67;;;6.20;99.40;;;;;;5033759;28;20030;-75
2022/04/11 06:07:05;;;;;;;11.83;6.33;;;6.30;99.80;;;;;;5033706;28;20025;-75
2022/04/11 06:09:31;;;;;;;10.80;5.87;;;6.30;99.90;;;;;;5038362;28;20076;-75
2022/04/11 06:11:58;;;;;;;10.97;5.70;;;6.40;99.90;;;;;;5034857;28;20014;-75
2022/04/11 06:14:23;;;;;;;12.27;5.23;;;6.50;99.90;;;;;;5033890;28;20056;-76
2022/04/11 06:16:49;;;;;;;8.77;5.27;;;6.60;98.80;;;;;;5016562;28;20397;-75
2022/04/11 06:19:16;;;;;;;9.88;5.20;;;6.70;98.60;;;;;;5034415;28;20029;-75
2022/04/11 06:21:42;;;;;;;10.80;5.00;;;6.80;98.30;;;;;;5034306;28;20785;-76
2022/04/11 06:24:08;;;;;;;9.87;5.30;;;6.90;97.80;;;;;;5034238;28;20029;-75
2022/04/11 06:26:34;;;;;;;15.63;5.37;;;7.00;97.30;;;;;;5026725;28;20028;-75
2022/04/11 06:29:00;;;;;;;13.90;5.10;;;7.10;98.00;;;;;;5034007;28;20033;-75
2022/04/11 06:31:26;;;;;;;11.13;5.75;;;7.30;97.20;;;;;;5016074;28;20028;-75
2022/04/11 06:33:51;;;;;;;16.80;5.88;;;7.40;97.50;;;;;;5033745;28;20041;-75
2022/04/11 06:36:17;;;;;;;7.13;5.05;;;7.40;96.80;;;;;;5034111;28;20112;-75
2022/04/11 06:38:43;;;;;;;11.35;4.82;;;7.60;95.60;;;;;;5016078;28;20466;-76
2022/04/11 06:41:09;;;;;;;7.88;3.88;;;7.70;95.00;;;;;;5036085;28;20084;-75
2022/04/11 06:43:34;;;;;;;7.75;3.40;;;7.70;94.40;;;;;;5033584;28;20017;-75
2022/04/11 06:46:00;;;;;;;8.15;3.90;;;7.80;94.20;;;;;;5033852;28;20026;-75
2022/04/11 06:48:26;;;;;;;11.10;3.58;;;7.80;93.90;;;;;;5034239;28;20049;-76
2022/04/11 06:50:53;;;;;;;5.70;3.42;;;7.80;93.70;;;;;;5033395;28;20030;-75
2022/04/11 06:53:20;;;;;;;7.68;3.30;;;7.80;93.40;;;;;;5033869;28;20064;-75
2022/04/11 06:55:47;;;;;;;8.10;3.50;;;7.90;93.00;;;;;;5033599;28;20378;-75
2022/04/11 06:58:16;;;;;;;7.35;3.38;;;8.00;92.60;;;;;;5033731;28;20021;-76
2022/04/11 07:00:43;;;;;;;4.65;2.75;;;8.20;92.50;;;;;;5049619;22;20512;-74
2022/04/11 07:03:09;;;;;;;6.85;3.10;;;8.50;91.00;;;;;;4995615;28;20470;-75
2022/04/11 07:05:35;;;;;;;8.25;2.80;;;8.60;89.50;;;;;;4995239;28;20056;-75
2022/04/11 07:08:00;;;;;;;4.72;3.17;;;8.80;90.00;;;;;;4995024;28;20505;-75
2022/04/11 07:10:26;;;;;;;3.45;2.97;;;9.00;88.50;;;;;;5021176;28;20462;-75
2022/04/11 07:12:52;;;;;;;9.73;2.80;;;9.00;87.30;;;;;;5014160;28;20026;-75
2022/04/11 07:15:17;;;;;;;5.35;2.95;;;9.00;86.70;;;;;;5013518;28;20378;-75
2022/04/11 07:17:44;;;;;;;7.93;3.58;;;9.00;86.20;;;;;;5013407;28;20022;-75
2022/04/11 07:20:10;;;;;;;6.82;3.13;;;9.10;85.10;;;;;;5011963;28;20048;-76
2022/04/11 07:22:36;;;;;;;7.03;2.72;;;9.20;84.10;;;;;;5016578;28;20105;-76
2022/04/11 07:25:02;;;;;;;5.35;2.55;;;9.30;83.00;;;;;;5012455;28;20467;-75
2022/04/11 07:27:28;;;;;;;7.60;2.83;;;9.40;82.20;;;;;;5012744;28;20080;-76
2022/04/11 07:29:53;;;;;;;5.95;2.40;;;9.60;81.80;;;;;;5015800;28;20446;-76
2022/04/11 07:32:19;;;;;;;6.82;2.28;;;9.80;82.10;;;;;;5013274;28;20038;-75
2022/04/11 07:34:45;;;;;;;8.68;2.38;;;10.00;81.80;;;;;;5012572;28;20084;-76
2022/04/11 07:37:11;;;;;;;6.90;2.60;;;10.10;81.10;;;;;;5011684;28;20486;-76
2022/04/11 07:39:37;;;;;;;6.25;2.42;;;10.30;80.30;;;;;;5011670;28;20025;-76
2022/04/11 07:42:03;;;;;;;5.22;2.30;;;10.40;79.50;;;;;;5019322;28;20036;-75
2022/04/11 07:44:29;;;;;;;6.10;2.30;;;10.40;78.20;;;;;;5012210;28;20433;-75
2022/04/11 07:57:17;;;;;;;9.07;2.60;;;10.80;75.30;;;;;;5576105;22;20061;-77
2022/04/11 07:59:43;;;;;;;5.75;2.20;;;10.90;74.50;;;;;;5032188;28;20104;-77
2022/04/11 08:02:09;;;;;;;5.25;2.45;;;11.00;74.80;;;;;;5030108;28;20109;-77
2022/04/11 08:04:34;;;;;;;5.40;2.50;;;10.90;73.10;;;;;;5028996;28;20030;-77
2022/04/11 08:07:02;;;;;;;5.70;2.40;;;11.00;75.30;;;;;;5034233;28;20469;-77
2022/04/11 08:09:28;;;;;;;8.40;2.95;;;10.90;74.20;;;;;;5031690;28;20072;-78
2022/04/11 08:11:54;;;;;;;6.22;2.33;;;10.90;74.40;;;;;;5031157;28;20045;-77
2022/04/11 08:14:20;;;;;;;4.85;2.20;;;10.80;75.40;;;;;;5031784;28;20069;-80
2022/04/11 08:16:47;;;;;;;6.30;2.03;;;11.00;76.10;;;;;;5036910;28;20029;-78
2022/04/11 08:19:12;;;;;;;7.70;3.05;;;11.00;74.30;;;;;;5029222;28;20504;-77
2022/04/11 08:21:38;;;;;;;6.10;2.28;;;11.00;74.90;;;;;;5030254;28;20033;-78
2022/04/11 08:24:05;;;;;;;7.53;2.22;;;11.00;73.80;;;;;;5038797;28;20045;-77
2022/04/11 08:26:31;;;;;;;7.05;2.42;;;11.10;73.40;;;;;;5031226;28;20051;-77
2022/04/11 08:28:56;;;;;;;4.93;2.28;;;11.10;74.40;;;;;;5031068;28;20485;-77
2022/04/11 08:31:22;;;;;;;13.88;2.45;;;11.10;72.80;;;;;;5031101;28;20029;-77
2022/04/11 08:33:48;;;;;;;5.72;2.25;;;11.20;73.40;;;;;;5031501;28;20354;-78
2022/04/11 08:36:14;;;;;;;5.13;2.20;;;11.30;72.50;;;;;;5013624;28;20038;-77
2022/04/11 08:38:39;;;;;;;5.68;2.55;;;11.30;72.80;;;;;;5013875;28;20017;-77
2022/04/11 08:41:13;;;;;;;6.18;2.38;;;11.40;71.80;;;;;;5031014;28;20116;-78
2022/04/11 08:43:39;;;;;;;6.25;2.20;;;11.60;72.60;;;;;;5031491;28;20033;-77
2022/04/11 08:46:06;;;;;;;5.95;2.22;;;11.70;70.50;;;;;;5031125;28;20389;-77
2022/04/11 08:48:33;;;;;;;7.40;2.55;;;11.90;69.60;;;;;;5038087;28;20123;-78
2022/04/11 08:50:58;;;;;;;5.03;2.15;;;12.40;69.10;;;;;;5030750;28;20022;-77
2022/04/11 08:53:24;;;;;;;7.53;1.90;;;12.90;67.00;;;;;;5031387;28;20022;-77
2022/04/11 08:55:51;;;;;;;5.00;1.80;;;13.60;65.80;;;;;;5031180;28;20032;-76
2022/04/11 08:58:17;;;;;;;5.03;1.90;;;13.70;62.60;;;;;;5031980;22;20057;-76
2022/04/11 09:00:45;;;;;;;7.95;2.65;;;14.00;61.60;;;;;;4992987;28;20497;-76
2022/04/11 09:03:10;;;;;;;4.72;2.20;;;14.30;61.00;;;;;;5010636;28;20026;-77
2022/04/11 09:05:36;;;;;;;6.97;2.28;;;14.50;59.90;;;;;;5010907;28;20030;-76
2022/04/11 09:08:02;;;;;;;4.78;2.20;;;14.50;58.30;;;;;;5013584;28;20105;-76
2022/04/11 09:10:38;;;;;;;5.70;2.47;;;14.60;58.30;;;;;;5010864;28;20061;-77
2022/04/11 09:13:09;;;;;;;4.13;2.00;;;14.70;59.00;;;;;;5020080;28;20445;-76
2022/04/11 09:15:40;;;;;;;6.15;2.38;;;15.10;58.80;;;;;;5011617;28;20048;-76
2022/04/11 09:18:06;;;;;;;8.25;2.40;;;15.20;57.00;;;;;;5011145;28;20405;-77
2022/04/11 09:20:32;;;;;;;4.90;1.95;;;15.30;56.30;;;;;;5011345;28;20042;-76
2022/04/11 09:22:58;;;;;;;8.50;3.05;;;15.60;55.00;;;;;;5011575;28;20089;-76
2022/04/11 09:25:30;;;;;;;3.97;1.80;;;15.70;56.40;;;;;;5011817;28;20057;-77
2022/04/11 09:28:06;;;;;;;6.15;2.35;;;16.10;53.90;;;;;;5011160;28;20025;-77
2022/04/11 09:30:32;;;;;;;3.47;2.53;;;16.10;53.50;;;;;;5011478;28;20040;-77
2022/04/11 09:32:58;;;;;;;5.30;2.03;;;16.70;53.20;;;;;;5011440;28;20026;-76
2022/04/11 09:35:25;;;;;;;5.25;2.20;;;17.80;50.40;;;;;;5011436;28;20029;-77
2022/04/11 09:38:10;;;;;;;9.10;2.00;;;17.90;48.40;;;;;;5011362;28;20022;-77
2022/04/11 09:40:36;;;;;;;4.63;1.75;;;18.70;47.10;;;;;;5011294;28;20030;-76
2022/04/11 09:43:02;;;;;;;6.38;2.72;;;18.40;45.90;;;;;;5014017;28;20041;-77
2022/04/11 09:45:28;;;;;;;6.15;2.65;;;18.50;46.80;;;;;;5011570;28;20477;-77
2022/04/11 09:48:02;;;;;;;4.80;1.90;;;19.00;45.20;;;;;;5011207;28;20347;-76
2022/04/11 09:50:29;;;;;;;7.05;1.80;;;19.40;43.80;;;;;;5011502;28;20025;-75
2022/04/11 09:53:16;;;;;;;7.30;1.83;;;19.10;43.80;;;;;;5011354;28;20056;-75
2022/04/11 09:55:46;;;;;;;4.20;2.05;;;18.70;46.00;;;;;;5011459;28;20014;-76
2022/04/11 09:58:12;;;;;;;5.03;2.33;;;18.10;45.80;;;;;;5008662;28;20095;-75
2022/04/11 10:00:40;;;;;;;5.30;2.17;;;17.60;47.20;;;;;;5009722;28;20092;-75
2022/04/11 10:03:07;;;;;;;6.30;2.42;;;17.00;49.30;;;;;;5012508;28;20032;-75
2022/04/11 10:05:37;;;;;;;4.60;2.30;;;16.20;50.10;;;;;;5014562;28;20030;-75
2022/04/11 10:08:06;;;;;;;7.28;2.47;;;15.90;51.40;;;;;;5016190;28;20084;-76
2022/04/11 10:10:34;;;;;;;3.97;2.00;;;16.50;51.80;;;;;;5001942;28;20028;-75
2022/04/11 10:13:01;;;;;;;7.20;2.20;;;17.10;51.40;;;;;;4999196;28;20034;-76
2022/04/11 10:15:27;;;;;;;5.72;2.03;;;18.20;47.60;;;;;;4997041;28;20079;-76
2022/04/11 10:17:56;;;;;;;4.18;2.10;;;19.60;45.00;;;;;;5014835;28;20025;-76
2022/04/11 10:20:29;;;;;;;5.57;2.20;;;19.90;43.90;;;;;;5014643;28;20048;-75
2022/04/11 10:23:11;;;;;;;3.45;1.95;;;18.70;44.20;;;;;;5014570;28;20017;-76
2022/04/11 10:25:44;;;;;;;3.78;2.20;;;18.80;45.20;;;;;;5014530;28;20643;-76
2022/04/11 10:28:29;;;;;;;6.78;1.98;;;18.60;44.60;;;;;;5023070;23;20069;-79
2022/04/11 10:31:12;;;;;;;4.93;2.10;;;18.90;44.60;;;;;;4995125;28;20124;-79
2022/04/11 10:33:57;;;;;;;5.05;2.10;;;19.30;42.50;;;;;;4977653;28;20023;-79
2022/04/11 10:36:34;;;;;;;3.95;1.80;;;20.00;41.50;;;;;;4998080;28;20048;-79
2022/04/11 10:39:15;;;;;;;8.70;2.45;;;20.50;41.40;;;;;;5013420;28;20029;-80
2022/04/11 10:41:56;;;;;;;6.43;1.88;;;21.10;39.50;;;;;;5013115;28;20045;-79
2022/04/11 10:45:00;;;;;;;4.95;2.22;;;22.20;36.10;;;;;;5012680;28;20029;-79
2022/04/11 10:47:30;;;;;;;5.05;1.98;;;21.90;35.10;;;;;;4914469;29;20062;-79
2022/04/11 10:50:01;;;;;;;5.05;1.85;;;21.70;37.20;;;;;;4914718;29;20032;-80
2022/04/11 10:52:35;;;;;;;5.85;2.10;;;22.50;37.90;;;;;;4966313;28;20048;-79
2022/04/11 10:55:14;;;;;;;5.32;1.90;;;21.80;35.70;;;;;;5013430;28;20145;-80
2022/04/11 10:57:46;;;;;;;4.18;2.30;;;22.60;36.70;;;;;;5007652;28;20021;-79
2022/04/11 11:00:12;;;;;;;6.88;1.92;;;22.40;36.20;;;;;;5013091;28;20030;-80
2022/04/11 11:02:50;;;;;;;4.65;1.92;;;22.50;36.80;;;;;;5013134;28;20049;-79
2022/04/11 11:05:29;;;;;;;8.30;2.58;;;21.10;38.60;;;;;;5012655;28;20406;-79
2022/04/11 11:08:10;;;;;;;4.18;2.10;;;22.20;37.00;;;;;;5012877;28;20014;-79
2022/04/11 11:10:42;;;;;;;3.13;1.80;;;22.40;35.10;;;;;;5012732;28;20479;-79
2022/04/11 11:13:36;;;;;;;7.65;2.63;;;23.40;34.30;;;;;;5012568;28;20367;-79
2022/04/11 11:16:08;;;;;;;4.60;2.50;;;23.00;34.00;;;;;;5009035;28;20021;-79
2022/04/11 11:18:53;;;;;;;;;;;22.20;34.00;;;;;;5013381;28;20033;-79
2022/04/11 11:21:20;;;;;;;4.78;2.50;;;21.80;36.40;;;;;;5003853;28;20404;-79
2022/04/11 11:24:04;;;;;;;4.90;2.20;;;23.20;34.30;;;;;;5012730;28;20057;-80
2022/04/11 12:28:34;;;;;;;4.22;2.60;;;26.60;29.80;;;;;;5015043;28;20096;-78
2022/04/11 12:31:03;;;;;;;5.22;2.90;;;26.90;28.30;;;;;;5012724;28;20014;-78
2022/04/11 12:33:42;;;;;;;4.63;2.92;;;26.70;28.80;;;;;;5012823;28;20117;-78
2022/04/11 12:36:16;;;;;;;4.68;3.17;;;26.10;28.50;;;;;;5011933;28;20030;-78
2022/04/11 12:38:48;;;;;;;6.65;3.17;;;24.00;30.70;;;;;;4994922;28;20049;-77
2022/04/11 12:41:43;;;;;;;9.00;3.42;;;22.70;32.40;;;;;;5012469;28;20081;-78
2022/04/11 12:44:32;;;;;;;6.13;3.47;;;22.60;33.40;;;;;;4994942;28;20032;-78
2022/04/11 12:46:58;;;;;;;6.35;3.13;;;23.00;31.40;;;;;;5012236;28;20018;-78
2022/04/11 12:49:25;;;;;;;4.97;2.75;;;22.10;33.60;;;;;;5012165;28;20026;-78
2022/04/11 12:52:02;;;;;;;4.90;2.83;;;23.50;34.80;;;;;;5012118;28;20026;-78
2022/04/11 12:54:41;;;;;;;5.85;4.00;;;24.20;30.70;;;;;;5012107;28;20021;-77
2022/04/11 12:57:09;;;;;;;4.53;3.03;;;24.10;30.80;;;;;;5014716;28;20500;-77
2022/04/11 12:59:37;;;;;;;8.82;3.47;;;22.70;32.80;;;;;;5012271;28;20022;-78
2022/04/11 13:02:20;;;;;;;8.20;3.90;;;21.50;35.30;;;;;;5012036;28;20065;-78
2022/04/11 13:04:54;;;;;;;11.73;4.85;;;20.60;36.60;;;;;;5012298;28;20477;-78
2022/04/11 13:07:26;;;;;;;8.02;4.38;;;20.10;37.00;;;;;;5012119;28;20156;-77
2022/04/11 13:09:53;;;;;;;6.47;4.07;;;20.40;37.00;;;;;;5012091;28;20022;-78
2022/04/11 13:12:20;;;;;;;6.15;4.40;;;20.40;37.00;;;;;;5011857;28;20076;-78
2022/04/11 13:14:48;;;;;;;5.30;4.03;;;20.40;36.40;;;;;;5011806;28;20478;-78
2022/04/11 13:19:59;;;;;;;6.75;3.70;;;20.70;37.10;;;;;;5012314;28;20492;-77
2022/04/11 13:22:26;;;;;;;6.05;4.10;;;21.50;37.20;;;;;;5012007;28;20048;-78
2022/04/11 13:24:53;;;;;;;6.80;4.22;;;22.10;35.60;;;;;;5012082;28;20022;-78
2022/04/11 16:34:42;;;;;;;20.50;11.38;;;16.50;55.70;;;;;;5120497;27;20427;-76
2022/04/11 16:37:08;;;;;;;21.40;11.15;;;17.20;55.20;;;;;;5111311;27;20051;-76
2022/04/11 16:39:34;;;;;;;19.25;10.70;;;17.10;54.50;;;;;;5101284;28;20071;-75
2022/04/11 16:41:59;;;;;;;20.77;11.07;;;17.10;55.20;;;;;;5106271;28;20027;-75
2022/04/11 16:44:25;;;;;;;23.50;12.00;;;17.10;54.90;;;;;;5109860;28;20026;-75
2022/04/11 16:46:51;;;;;;;18.42;10.15;;;17.20;54.30;;;;;;5101087;28;20023;-76
2022/04/11 16:49:16;;;;;;;22.13;11.35;;;17.10;55.70;;;;;;5101135;28;20039;-75
2022/04/11 16:51:42;;;;;;;21.75;10.80;;;16.90;55.50;;;;;;5101310;28;20043;-75
2022/04/11 16:54:08;;;;;;;21.95;10.45;;;16.80;56.40;;;;;;5101480;28;20035;-75
2022/04/11 16:56:34;;;;;;;20.70;9.82;;;16.80;56.60;;;;;;5100563;28;20491;-74
2022/04/11 16:59:01;;;;;;;22.05;11.13;;;16.80;56.70;;;;;;5104949;28;20031;-75
2022/04/11 17:01:27;;;;;;;20.25;10.27;;;16.70;57.20;;;;;;5108403;28;20159;-74
2022/04/11 17:03:53;;;;;;;24.60;10.82;;;16.80;58.00;;;;;;5101735;28;20024;-75
2022/04/11 17:06:18;;;;;;;22.55;10.43;;;16.80;57.40;;;;;;5105423;28;20040;-76
2022/04/11 17:08:45;;;;;;;19.02;9.82;;;16.80;57.70;;;;;;5106461;28;20062;-75
2022/04/11 17:11:11;;;;;;;18.90;10.25;;;16.80;57.90;;;;;;5106009;28;20020;-75